createdAt,value
2018-06-23T00:01:48.162Z,22.39
2018-06-23T00:04:14.857Z,22.36
2018-06-23T00:06:41.558Z,22.35
2018-06-23T00:09:08.263Z,22.34
2018-06-23T00:11:35.022Z,22.35
2018-06-23T00:14:02.356Z,22.37
2018-06-23T00:16:29.065Z,22.38
2018-06-23T00:18:55.749Z,22.31
2018-06-23T00:21:22.454Z,22.29
2018-06-23T00:23:49.165Z,22.29
2018-06-23T00:26:21.594Z,22.27
2018-06-23T00:28:48.311Z,22.33
2018-06-23T00:31:14.999Z,22.34
2018-06-23T00:33:41.702Z,22.27
2018-06-23T00:36:08.463Z,22.22
2018-06-23T00:38:35.181Z,22.31
2018-06-23T00:41:01.887Z,22.28
2018-06-23T00:43:28.621Z,22.29
2018-06-23T00:45:55.310Z,22.32
2018-06-23T00:48:22.005Z,22.20
2018-06-23T00:50:48.695Z,22.31
2018-06-23T00:53:15.454Z,22.22
2018-06-23T00:55:42.134Z,22.27
2018-06-23T00:58:08.846Z,22.28
2018-06-23T01:00:35.529Z,22.33
2018-06-23T01:03:02.266Z,22.23
2018-06-23T01:05:29.811Z,22.19
2018-06-23T01:07:57.857Z,22.21
2018-06-23T01:10:24.533Z,22.26
2018-06-23T01:12:52.132Z,22.17
2018-06-23T01:15:18.807Z,22.14
2018-06-23T01:17:45.481Z,22.11
2018-06-23T01:20:12.177Z,22.19
2018-06-23T01:22:38.957Z,22.18
2018-06-23T01:25:05.683Z,22.18
2018-06-23T01:27:32.349Z,22.15
2018-06-23T01:29:59.056Z,22.24
2018-06-23T01:32:26.723Z,22.20
2018-06-23T01:34:54.332Z,22.20
2018-06-23T01:37:21.025Z,22.17
2018-06-23T01:39:47.786Z,22.21
2018-06-23T01:42:14.504Z,22.26
2018-06-23T01:44:42.237Z,22.20
2018-06-23T01:47:08.945Z,22.14
2018-06-23T01:49:36.606Z,22.20
2018-06-23T01:52:04.197Z,22.21
2018-06-23T01:54:31.769Z,22.18
2018-06-23T01:56:59.385Z,22.17
2018-06-23T01:59:26.142Z,22.14
2018-06-23T02:01:52.857Z,22.19
2018-06-23T02:04:20.406Z,22.17
2018-06-23T02:06:47.102Z,22.13
2018-06-23T02:09:13.864Z,22.21
2018-06-23T02:11:40.540Z,22.16
2018-06-23T02:14:12.949Z,22.13
2018-06-23T02:17:46.790Z,22.06
2018-06-23T02:20:19.109Z,21.81
2018-06-23T02:22:52.173Z,21.92
2018-06-23T02:25:24.585Z,22.07
2018-06-23T02:27:57.134Z,22.13
2018-06-23T02:30:27.476Z,22.05
2018-06-23T02:32:55.127Z,22.10
2018-06-23T02:35:22.501Z,22.12
2018-06-23T02:37:50.104Z,22.11
2018-06-23T02:40:16.798Z,22.20
2018-06-23T02:42:43.554Z,22.16
2018-06-23T02:45:10.256Z,22.10
2018-06-23T02:47:38.035Z,22.16
2018-06-23T02:50:04.737Z,22.11
2018-06-23T02:52:32.464Z,22.12
2018-06-23T02:54:59.274Z,22.10
2018-06-23T02:57:25.957Z,22.17
2018-06-23T02:59:52.651Z,22.07
2018-06-23T03:02:19.522Z,22.10
2018-06-23T03:04:46.206Z,22.07
2018-06-23T03:07:13.014Z,22.07
2018-06-23T03:09:39.747Z,22.09
2018-06-23T03:12:06.428Z,22.11
2018-06-23T03:14:33.145Z,22.13
2018-06-23T03:16:59.826Z,22.03
2018-06-23T03:19:26.505Z,22.11
2018-06-23T03:21:53.192Z,22.07
2018-06-23T03:24:19.864Z,22.02
2018-06-23T03:26:46.539Z,22.14
2018-06-23T03:29:13.311Z,22.12
2018-06-23T03:31:40.822Z,22.16
2018-06-23T03:34:08.344Z,22.03
2018-06-23T03:36:36.277Z,22.03
2018-06-23T03:39:03.563Z,22.06
2018-06-23T03:41:30.328Z,22.09
2018-06-23T03:43:58.014Z,22.10
2018-06-23T03:46:24.735Z,22.14
2018-06-23T03:48:51.459Z,22.20
2018-06-23T03:51:18.161Z,22.13
2018-06-23T03:53:45.843Z,22.07
2018-06-23T03:56:12.592Z,22.04
2018-06-23T03:58:40.110Z,22.02
2018-06-23T04:01:07.045Z,22.01
2018-06-23T04:03:34.751Z,22.11
2018-06-23T04:06:01.549Z,22.11
2018-06-23T04:08:28.241Z,22.06
2018-06-23T04:10:55.737Z,22.06
2018-06-23T04:13:22.481Z,22.07
2018-06-23T04:15:49.231Z,22.06
2018-06-23T04:18:15.937Z,22.04
2018-06-23T04:20:43.642Z,22.07
2018-06-23T04:23:10.362Z,22.04
2018-06-23T04:25:37.414Z,22.05
2018-06-23T04:28:04.167Z,22.07
2018-06-23T04:30:32.393Z,22.00
2018-06-23T04:32:59.116Z,21.98
2018-06-23T04:35:26.645Z,22.03
2018-06-23T04:37:53.414Z,22.01
2018-06-23T04:40:20.104Z,22.16
2018-06-23T04:42:47.025Z,22.09
2018-06-23T04:45:14.646Z,22.03
2018-06-23T04:47:41.463Z,22.04
2018-06-23T04:50:09.372Z,22.01
2018-06-23T04:52:36.113Z,22.01
2018-06-23T04:55:03.778Z,22.03
2018-06-23T04:57:31.509Z,21.99
2018-06-23T04:59:59.217Z,21.99
2018-06-23T05:02:25.965Z,22.06
2018-06-23T05:04:53.590Z,22.08
2018-06-23T05:07:21.237Z,22.03
2018-06-23T05:09:47.976Z,22.04
2018-06-23T05:12:15.717Z,21.96
2018-06-23T05:14:42.440Z,21.99
2018-06-23T05:17:10.082Z,22.02
2018-06-23T05:19:36.829Z,22.09
2018-06-23T05:22:04.495Z,22.09
2018-06-23T05:24:32.198Z,22.07
2018-06-23T05:26:58.905Z,22.03
2018-06-23T05:29:26.620Z,22.06
2018-06-23T05:31:53.328Z,22.02
2018-06-23T05:34:21.030Z,22.02
2018-06-23T05:36:47.739Z,22.06
2018-06-23T05:39:14.417Z,22.03
2018-06-23T05:41:41.945Z,22.08
2018-06-23T05:44:09.506Z,22.09
2018-06-23T05:46:36.215Z,22.13
2018-06-23T05:49:03.912Z,22.11
2018-06-23T05:51:30.642Z,22.06
2018-06-23T05:53:57.398Z,22.04
2018-06-23T05:56:24.104Z,22.09
2018-06-23T05:58:51.730Z,22.10
2018-06-23T06:01:18.549Z,22.22
2018-06-23T06:03:45.258Z,22.09
2018-06-23T06:06:12.863Z,22.14
2018-06-23T06:08:39.604Z,22.15
2018-06-23T06:11:06.303Z,22.10
2018-06-23T06:13:32.974Z,22.15
2018-06-23T06:15:59.668Z,22.22
2018-06-23T06:18:27.312Z,22.18
2018-06-23T06:20:53.975Z,22.06
2018-06-23T06:23:20.701Z,22.11
2018-06-23T06:25:48.222Z,22.07
2018-06-23T06:28:15.895Z,22.08
2018-06-23T06:30:43.366Z,22.12
2018-06-23T06:33:10.088Z,22.04
2018-06-23T06:35:36.838Z,22.07
2018-06-23T06:38:03.490Z,22.12
2018-06-23T06:40:30.201Z,22.07
2018-06-23T06:42:56.885Z,22.02
2018-06-23T06:45:23.578Z,22.05
2018-06-23T06:47:50.249Z,22.09
2018-06-23T06:50:17.726Z,22.05
2018-06-23T06:52:44.462Z,22.16
2018-06-23T06:55:11.954Z,22.09
2018-06-23T06:57:38.694Z,22.06
2018-06-23T07:00:05.661Z,22.16
2018-06-23T07:02:32.340Z,22.06
2018-06-23T07:04:59.013Z,22.07
2018-06-23T07:07:26.534Z,22.06
2018-06-23T07:09:53.213Z,22.08
2018-06-23T07:12:20.885Z,22.09
2018-06-23T07:14:47.642Z,22.01
2018-06-23T07:17:14.403Z,22.03
2018-06-23T07:19:41.118Z,22.11
2018-06-23T07:22:07.826Z,22.06
2018-06-23T07:24:35.442Z,21.98
2018-06-23T07:27:02.148Z,22.06
2018-06-23T07:29:28.855Z,22.11
2018-06-23T07:31:55.558Z,22.00
2018-06-23T07:34:23.240Z,21.96
2018-06-23T07:36:49.877Z,22.01
2018-06-23T07:39:16.537Z,21.98
2018-06-23T07:41:43.225Z,21.91
2018-06-23T07:44:10.015Z,22.00
2018-06-23T07:46:36.757Z,21.89
2018-06-23T07:49:03.564Z,21.91
2018-06-23T07:51:30.267Z,21.94
2018-06-23T07:53:57.809Z,21.97
2018-06-23T07:56:24.511Z,22.03
2018-06-23T07:58:51.190Z,21.99
2018-06-23T08:01:17.893Z,22.00
2018-06-23T08:03:44.885Z,22.03
2018-06-23T08:06:12.482Z,22.05
2018-06-23T08:08:39.238Z,22.06
2018-06-23T08:11:06.805Z,22.05
2018-06-23T08:13:33.567Z,21.99
2018-06-23T08:16:01.094Z,22.08
2018-06-23T08:18:28.844Z,22.07
2018-06-23T08:20:55.534Z,22.09
2018-06-23T08:23:23.151Z,22.10
2018-06-23T08:25:49.902Z,22.02
2018-06-23T08:28:16.598Z,22.10
2018-06-23T08:30:44.322Z,22.10
2018-06-23T08:33:11.998Z,22.07
2018-06-23T08:35:39.720Z,22.06
2018-06-23T08:38:07.277Z,22.09
2018-06-23T08:40:34.099Z,22.06
2018-06-23T08:43:01.817Z,22.06
2018-06-23T08:45:29.352Z,22.16
2018-06-23T08:47:56.030Z,22.06
2018-06-23T08:50:22.799Z,22.17
2018-06-23T08:52:50.351Z,22.07
2018-06-23T08:55:17.959Z,22.14
2018-06-23T08:57:44.683Z,22.20
2018-06-23T09:00:11.492Z,22.33
2018-06-23T09:02:38.781Z,22.38
2018-06-23T09:05:05.590Z,22.46
2018-06-23T09:07:32.264Z,22.48
2018-06-23T09:09:59.020Z,22.60
2018-06-23T09:12:25.698Z,22.65
2018-06-23T09:14:53.210Z,22.65
2018-06-23T09:17:19.922Z,22.72
2018-06-23T09:19:47.551Z,22.74
2018-06-23T09:22:14.259Z,22.69
2018-06-23T09:24:41.913Z,22.70
2018-06-23T09:27:08.595Z,22.71
2018-06-23T09:29:35.273Z,22.63
2018-06-23T09:32:02.000Z,22.70
2018-06-23T09:34:28.739Z,22.64
2018-06-23T09:36:55.427Z,22.71
2018-06-23T09:39:22.260Z,22.65
2018-06-23T09:41:49.083Z,22.68
2018-06-23T09:44:15.814Z,22.64
2018-06-23T09:46:42.505Z,22.64
2018-06-23T09:49:09.230Z,22.70
2018-06-23T09:51:35.896Z,22.72
2018-06-23T09:54:02.582Z,22.71
2018-06-23T09:56:29.273Z,22.73
2018-06-23T09:58:56.060Z,22.73
2018-06-23T10:01:23.777Z,22.71
2018-06-23T10:03:50.473Z,22.71
2018-06-23T10:06:18.094Z,22.73
2018-06-23T10:08:44.833Z,22.63
2018-06-23T10:11:12.339Z,22.73
2018-06-23T10:13:39.626Z,22.76
2018-06-23T10:16:06.376Z,22.79
2018-06-23T10:18:33.928Z,22.77
2018-06-23T10:21:01.540Z,22.70
2018-06-23T10:23:29.211Z,22.79
2018-06-23T10:25:56.949Z,22.75
2018-06-23T10:28:24.709Z,22.77
2018-06-23T10:30:51.409Z,22.71
2018-06-23T10:33:18.070Z,22.76
2018-06-23T10:35:44.744Z,22.71
2018-06-23T10:38:11.663Z,22.76
2018-06-23T10:40:38.354Z,22.74
2018-06-23T10:43:05.058Z,22.71
2018-06-23T10:45:31.781Z,22.72
2018-06-23T10:47:58.438Z,22.74
2018-06-23T10:50:25.125Z,22.74
2018-06-23T10:52:52.718Z,22.71
2018-06-23T10:55:20.336Z,22.72
2018-06-23T10:57:48.035Z,22.71
2018-06-23T11:00:15.703Z,22.70
2018-06-23T11:02:43.219Z,22.72
2018-06-23T11:05:11.217Z,22.76
2018-06-23T11:07:46.058Z,22.74
2018-06-23T11:10:12.767Z,22.73
2018-06-23T11:12:41.283Z,22.74
2018-06-23T11:15:12.188Z,22.67
2018-06-23T11:17:42.088Z,22.74
2018-06-23T11:20:08.724Z,22.72
2018-06-23T11:22:50.670Z,22.74
2018-06-23T11:25:17.628Z,22.73
2018-06-23T11:27:45.069Z,22.72
2018-06-23T11:30:46.313Z,22.73
2018-06-23T11:33:14.210Z,22.68
2018-06-23T11:35:42.828Z,22.68
2018-06-23T11:38:09.497Z,22.69
2018-06-23T11:41:13.059Z,22.69
2018-06-23T11:43:40.431Z,22.64
2018-06-23T11:46:07.937Z,22.69
2018-06-23T11:51:20.670Z,22.71
2018-06-23T11:53:47.300Z,22.66
2018-06-23T11:56:13.980Z,22.71
2018-06-23T11:58:42.981Z,22.68
2018-06-23T12:04:09.345Z,22.67
2018-06-23T12:06:37.271Z,22.66
2018-06-23T12:09:06.240Z,22.67
2018-06-23T12:11:33.940Z,22.66
2018-06-23T12:14:00.585Z,22.70
2018-06-23T12:16:28.241Z,22.70
2018-06-23T12:18:54.944Z,22.70
2018-06-23T12:21:21.590Z,22.70
2018-06-23T12:23:49.091Z,22.66
2018-06-23T12:26:15.725Z,22.69
2018-06-23T12:28:43.620Z,22.74
2018-06-23T12:31:12.266Z,22.71
2018-06-23T12:33:40.847Z,22.71
2018-06-23T12:36:07.528Z,22.69
2018-06-23T12:38:35.089Z,22.72
2018-06-23T12:41:02.721Z,22.70
2018-06-23T12:43:30.303Z,22.69
2018-06-23T12:45:57.738Z,22.66
2018-06-23T12:48:25.274Z,22.64
2018-06-23T12:50:51.905Z,22.63
2018-06-23T12:53:19.408Z,22.70
2018-06-23T12:55:46.970Z,22.69
2018-06-23T12:58:14.473Z,22.71
2018-06-23T13:00:42.852Z,22.67
2018-06-23T13:03:09.557Z,22.69
2018-06-23T13:05:36.237Z,22.65
2018-06-23T13:08:02.937Z,22.69
2018-06-23T13:10:29.608Z,22.69
2018-06-23T13:12:57.222Z,22.72
2018-06-23T13:15:23.889Z,22.67
2018-06-23T13:17:50.565Z,22.68
2018-06-23T13:20:17.249Z,22.69
2018-06-23T13:22:44.773Z,22.69
2018-06-23T13:25:13.053Z,22.67
2018-06-23T13:27:43.104Z,22.70
2018-06-23T13:30:10.744Z,22.68
2018-06-23T13:32:38.372Z,22.69
2018-06-23T13:35:05.913Z,22.71
2018-06-23T13:37:33.536Z,22.69
2018-06-23T13:40:13.185Z,22.68
2018-06-23T13:42:40.958Z,22.67
2018-06-23T13:45:08.416Z,22.69
2018-06-23T13:47:35.093Z,22.67
2018-06-23T13:50:02.856Z,22.68
2018-06-23T13:52:30.389Z,22.68
2018-06-23T13:54:57.473Z,22.61
2018-06-23T13:57:24.244Z,22.63
2018-06-23T13:59:51.845Z,22.63
2018-06-23T14:05:46.626Z,22.62
2018-06-23T14:08:13.356Z,22.59
2018-06-23T14:10:41.657Z,22.59
2018-06-23T14:13:09.277Z,22.59
2018-06-23T14:15:35.953Z,22.53
2018-06-23T14:18:02.616Z,22.56
2018-06-23T14:20:29.309Z,22.61
2018-06-23T14:22:56.000Z,22.60
2018-06-23T14:25:22.645Z,22.61
2018-06-23T14:27:50.424Z,22.60
2018-06-23T14:30:18.009Z,22.59
2018-06-23T14:32:44.993Z,22.54
2018-06-23T14:35:12.814Z,22.54
2018-06-23T14:37:40.289Z,22.54
2018-06-23T14:40:08.015Z,22.61
2018-06-23T14:42:35.641Z,22.57
2018-06-23T14:45:03.248Z,22.55
2018-06-23T14:47:29.949Z,22.54
2018-06-23T14:49:57.408Z,22.53
2018-06-23T14:52:25.089Z,22.54
2018-06-23T14:54:51.729Z,22.54
2018-06-23T14:57:18.368Z,22.56
2018-06-23T14:59:45.029Z,22.57
2018-06-23T15:02:12.225Z,22.52
2018-06-23T15:04:38.879Z,22.56
2018-06-23T15:07:05.542Z,22.52
2018-06-23T15:09:37.938Z,22.51
2018-06-23T15:12:10.307Z,22.51
2018-06-23T15:14:36.950Z,22.48
2018-06-23T15:17:03.836Z,22.49
2018-06-23T15:19:30.472Z,22.46
2018-06-23T15:21:58.160Z,22.53
2018-06-23T15:24:24.801Z,22.46
2018-06-23T15:26:51.487Z,22.46
2018-06-23T15:29:18.140Z,22.45
2018-06-23T15:31:44.829Z,22.44
2018-06-23T15:34:13.092Z,22.47
2018-06-23T15:36:39.736Z,22.48
2018-06-23T15:39:07.180Z,22.44
2018-06-23T15:41:33.825Z,22.45
2018-06-23T15:44:00.462Z,22.45
2018-06-23T15:46:28.098Z,22.42
2018-06-23T15:48:54.964Z,22.22
2018-06-23T15:53:47.796Z,22.21
2018-06-23T15:58:43.104Z,22.26
2018-06-23T16:01:09.829Z,22.19
2018-06-23T16:06:04.634Z,22.19
2018-06-23T16:08:32.118Z,22.27
2018-06-23T16:10:58.809Z,22.25
2018-06-23T16:13:25.495Z,22.15
2018-06-23T16:15:52.136Z,22.15
2018-06-23T16:18:18.821Z,22.08
2018-06-23T16:20:45.496Z,22.03
2018-06-23T16:23:13.018Z,22.12
2018-06-23T16:25:39.676Z,22.09
2018-06-23T16:28:06.303Z,22.06
2018-06-23T16:30:33.908Z,22.20
2018-06-23T16:33:00.542Z,22.11
2018-06-23T16:35:27.552Z,22.18
2018-06-23T16:37:53.909Z,22.08
2018-06-23T16:40:20.561Z,22.11
2018-06-23T16:42:47.204Z,22.09
2018-06-23T16:45:13.841Z,22.10
2018-06-23T16:47:41.168Z,22.10
2018-06-23T16:50:07.838Z,22.13
2018-06-23T16:52:34.553Z,22.14
2018-06-23T16:55:01.150Z,22.13
2018-06-23T16:57:27.789Z,22.16
2018-06-23T16:59:54.445Z,22.09
2018-06-23T17:02:21.101Z,22.09
2018-06-23T17:04:47.748Z,22.13
2018-06-23T17:07:14.441Z,22.07
2018-06-23T17:09:43.286Z,22.12
2018-06-23T17:12:10.753Z,22.14
2018-06-23T17:14:37.388Z,22.12
2018-06-23T17:17:05.157Z,22.11
2018-06-23T17:19:32.684Z,22.09
2018-06-23T17:22:00.228Z,22.07
2018-06-23T17:24:26.856Z,22.04
2018-06-23T17:26:53.505Z,22.16
2018-06-23T17:29:20.137Z,22.12
2018-06-23T17:31:46.776Z,22.11
2018-06-23T17:34:13.406Z,22.15
2018-06-23T17:36:41.042Z,22.10
2018-06-23T17:39:08.534Z,22.12
2018-06-23T17:41:35.213Z,22.23
2018-06-23T17:44:01.854Z,22.12
2018-06-23T17:46:28.557Z,22.08
2018-06-23T17:48:55.237Z,22.06
2018-06-23T17:51:21.888Z,22.10
2018-06-23T17:53:48.545Z,22.19
2018-06-23T17:56:15.173Z,22.19
2018-06-23T17:58:42.796Z,22.24
2018-06-23T18:01:09.564Z,22.41
2018-06-23T18:03:36.213Z,22.40
2018-06-23T18:06:02.967Z,22.45
2018-06-23T18:08:29.593Z,22.42
2018-06-23T18:10:56.277Z,22.55
2018-06-23T18:13:23.908Z,22.58
2018-06-23T18:15:51.486Z,22.64
2018-06-23T18:18:18.184Z,22.61
2018-06-23T18:20:44.852Z,22.60
2018-06-23T18:23:13.861Z,22.64
2018-06-23T18:25:43.089Z,22.63
2018-06-23T18:28:09.802Z,22.62
2018-06-23T18:30:36.469Z,22.63
2018-06-23T18:33:03.117Z,22.60
2018-06-23T18:35:29.773Z,22.60
2018-06-23T18:37:56.585Z,22.60
2018-06-23T18:40:23.288Z,22.52
2018-06-23T18:42:50.942Z,22.58
2018-06-23T18:45:17.736Z,22.57
2018-06-23T18:47:44.578Z,22.56
2018-06-23T18:50:12.951Z,22.54
2018-06-23T18:52:39.684Z,22.51
2018-06-23T18:55:06.416Z,22.49
2018-06-23T18:57:34.074Z,22.52
2018-06-23T19:00:01.773Z,22.53
2018-06-23T19:02:29.269Z,22.45
2018-06-23T19:04:55.960Z,22.51
2018-06-23T19:07:22.592Z,22.46
2018-06-23T19:09:49.232Z,22.50
2018-06-23T19:12:15.872Z,22.44
2018-06-23T19:14:43.629Z,22.46
2018-06-23T19:17:11.725Z,22.46
2018-06-23T19:19:38.372Z,22.44
2018-06-23T19:22:06.021Z,22.38
2018-06-23T19:24:33.656Z,22.39
2018-06-23T19:27:01.130Z,22.42
2018-06-23T19:29:27.804Z,22.43
2018-06-23T19:31:54.475Z,22.45
2018-06-23T19:34:21.165Z,22.39
2018-06-23T19:36:48.156Z,22.33
2018-06-23T19:39:14.866Z,22.36
2018-06-23T19:41:43.009Z,22.37
2018-06-23T19:44:09.833Z,22.39
2018-06-23T19:46:36.409Z,22.33
2018-06-23T19:49:03.098Z,22.41
2018-06-23T19:51:29.751Z,22.39
2018-06-23T19:53:56.456Z,22.42
2018-06-23T19:56:23.089Z,22.28
2018-06-23T19:58:49.832Z,22.32
2018-06-23T20:01:17.416Z,22.40
2018-06-23T20:03:44.088Z,22.34
2018-06-23T20:06:12.894Z,22.37
2018-06-23T20:08:39.518Z,22.32
2018-06-23T20:11:06.173Z,22.32
2018-06-23T20:13:33.083Z,22.31
2018-06-23T20:15:59.728Z,22.28
2018-06-23T20:18:27.153Z,22.26
2018-06-23T20:20:53.837Z,22.31
2018-06-23T20:23:21.828Z,22.28
2018-06-23T20:25:49.371Z,22.28
2018-06-23T20:28:16.904Z,22.28
2018-06-23T20:30:44.572Z,22.34
2018-06-23T20:33:13.370Z,22.29
2018-06-23T20:35:42.262Z,22.31
2018-06-23T20:38:09.889Z,22.27
2018-06-23T20:40:39.171Z,22.21
2018-06-23T20:43:09.610Z,22.21
2018-06-23T20:45:37.575Z,22.20
2018-06-23T20:48:06.997Z,22.22
2018-06-23T20:50:34.904Z,22.19
2018-06-23T20:53:02.592Z,22.21
2018-06-23T20:55:29.693Z,22.22
2018-06-23T20:57:56.425Z,22.19
2018-06-23T21:00:23.048Z,22.25
2018-06-23T21:02:49.781Z,22.26
2018-06-23T21:05:17.332Z,22.18
2018-06-23T21:07:43.993Z,22.17
2018-06-23T21:10:16.280Z,22.20
2018-06-23T21:12:43.935Z,22.16
2018-06-23T21:15:12.693Z,22.16
2018-06-23T21:17:39.419Z,22.13
2018-06-23T21:20:06.069Z,22.21
2018-06-23T21:22:33.505Z,22.18
2018-06-23T21:25:00.137Z,22.21
2018-06-23T21:27:26.780Z,22.17
2018-06-23T21:29:54.320Z,22.19
2018-06-23T21:32:20.997Z,22.21
2018-06-23T21:34:47.642Z,22.21
2018-06-23T21:37:14.284Z,22.16
2018-06-23T21:39:42.156Z,22.15
2018-06-23T21:42:08.854Z,22.15
2018-06-23T21:44:36.549Z,22.19
2018-06-23T21:47:03.200Z,22.13
2018-06-23T21:49:29.836Z,22.12
2018-06-23T21:51:56.475Z,22.20
2018-06-23T21:54:23.117Z,22.19
2018-06-23T21:56:49.759Z,22.10
2018-06-23T21:59:16.389Z,22.15
2018-06-23T22:01:43.693Z,22.14
2018-06-23T22:04:12.795Z,22.10
2018-06-23T22:06:39.436Z,22.11
2018-06-23T22:09:07.055Z,22.12
2018-06-23T22:11:33.682Z,22.08
2018-06-23T22:14:00.321Z,22.12
2018-06-23T22:16:26.957Z,22.12
2018-06-23T22:18:53.605Z,22.14
2018-06-23T22:21:20.235Z,22.15
2018-06-23T22:23:46.870Z,22.13
2018-06-23T22:26:13.504Z,22.14
2018-06-23T22:28:41.154Z,22.13
2018-06-23T22:31:08.605Z,22.13
2018-06-23T22:33:36.317Z,22.10
2018-06-23T22:36:04.033Z,22.14
2018-06-23T22:38:31.552Z,22.09
2018-06-23T22:40:58.398Z,22.14
2018-06-23T22:43:25.985Z,22.07
2018-06-23T22:45:53.694Z,22.08
2018-06-23T22:48:21.380Z,22.04
2018-06-23T22:50:48.988Z,22.07
2018-06-23T22:53:15.630Z,22.07
2018-06-23T22:55:43.029Z,22.14
2018-06-23T22:58:09.661Z,22.11
2018-06-23T23:00:36.309Z,22.10
2018-06-23T23:03:02.993Z,22.06
2018-06-23T23:05:30.501Z,22.11
2018-06-23T23:07:57.178Z,22.07
2018-06-23T23:10:23.846Z,22.06
2018-06-23T23:12:50.529Z,22.07
2018-06-23T23:15:17.202Z,22.02
2018-06-23T23:17:43.902Z,22.14
2018-06-23T23:20:10.573Z,22.11
2018-06-23T23:22:38.113Z,22.16
2018-06-23T23:25:04.805Z,22.08
2018-06-23T23:27:32.388Z,22.04
2018-06-23T23:29:59.057Z,21.99
2018-06-23T23:32:25.696Z,22.00
2018-06-23T23:34:52.388Z,22.00
2018-06-23T23:37:19.937Z,22.06
2018-06-23T23:39:47.697Z,22.06
2018-06-23T23:42:15.469Z,22.07
2018-06-23T23:44:44.421Z,21.99
2018-06-23T23:47:11.141Z,22.01
2018-06-23T23:49:38.752Z,22.02
2018-06-23T23:52:05.390Z,22.10
2018-06-23T23:54:32.025Z,22.02
2018-06-23T23:56:59.480Z,22.04
2018-06-23T23:59:27.132Z,22.03
